Terminal Aerodrome Forecast
Issued by NWS

Home | Current Version | Previous Version | Text Only | Print | Product List | Glossary On
Versions: 1 2 3 4 5 6 7 8 9 10 11 12 13
000
FTUS45 KTFX 310500
TAFGTF
TAF
KGTF 310537Z 3106/0106 22011KT P6SM SCT200
     FM311000 33010KT P6SM SCT080 BKN150
     FM311300 35015G28KT 3SM -SN OVC025
     FM311700 35015G28KT 3/4SM -SN BLSN OVC008
     FM312300 35012KT 3SM -SN OVC015=

USA.gov is the U.S. government's official web portal to all federal, state and local government web resources and services.